createdAt,value
2018-08-22T00:01:11.826Z,1.40
2018-08-22T00:03:40.084Z,1.50
2018-08-22T00:06:09.466Z,1.50
2018-08-22T00:08:42.607Z,1.40
2018-08-22T00:11:11.406Z,1.43
2018-08-22T00:13:39.671Z,1.07
2018-08-22T00:16:08.126Z,1.30
2018-08-22T00:18:36.463Z,1.60
2018-08-22T00:21:05.054Z,1.60
2018-08-22T00:23:33.310Z,1.70
2018-08-22T00:26:40.654Z,1.27
2018-08-22T00:29:10.311Z,1.43
2018-08-22T00:31:39.021Z,1.40
2018-08-22T00:34:07.727Z,1.60
2018-08-22T00:36:36.033Z,1.60
2018-08-22T00:39:06.429Z,1.37
2018-08-22T00:41:34.935Z,1.10
2018-08-22T00:44:03.524Z,1.40
2018-08-22T00:46:31.821Z,1.30
2018-08-22T00:49:00.310Z,1.40
2018-08-22T00:51:28.627Z,1.40
2018-08-22T00:53:57.150Z,1.40
2018-08-22T00:56:25.916Z,1.23
2018-08-22T00:58:54.233Z,1.40
2018-08-22T01:01:25.068Z,1.30
2018-08-22T01:03:53.848Z,1.30
2018-08-22T01:06:22.566Z,1.30
2018-08-22T01:08:50.798Z,1.30
2018-08-22T01:11:19.161Z,1.30
2018-08-22T01:13:47.502Z,1.20
2018-08-22T01:16:15.709Z,1.30
2018-08-22T01:18:44.693Z,1.13
2018-08-22T01:21:13.066Z,1.50
2018-08-22T01:23:41.628Z,1.20
2018-08-22T01:26:09.920Z,1.17
2018-08-22T01:28:38.417Z,1.50
2018-08-22T01:31:06.726Z,1.20
2018-08-22T01:33:35.157Z,1.33
2018-08-22T01:36:03.450Z,1.50
2018-08-22T01:38:31.810Z,2.00
2018-08-22T01:41:00.446Z,2.13
2018-08-22T01:43:28.730Z,2.10
2018-08-22T01:46:02.267Z,1.90
2018-08-22T01:48:30.750Z,1.70
2018-08-22T01:50:59.063Z,1.70
2018-08-22T01:53:27.526Z,1.50
2018-08-22T01:55:55.873Z,1.60
2018-08-22T01:58:24.177Z,1.60
2018-08-22T02:00:52.538Z,1.37
2018-08-22T02:03:21.066Z,1.30
2018-08-22T02:05:50.130Z,1.10
2018-08-22T02:08:18.418Z,1.27
2018-08-22T02:10:47.651Z,1.10
2018-08-22T02:13:16.169Z,1.23
2018-08-22T02:15:44.922Z,1.20
2018-08-22T02:18:13.768Z,1.33
2018-08-22T02:20:42.238Z,1.17
2018-08-22T02:23:11.366Z,1.23
2018-08-22T02:29:06.058Z,1.20
2018-08-22T02:31:34.418Z,1.50
2018-08-22T02:34:02.974Z,1.20
2018-08-22T02:36:32.052Z,1.10
2018-08-22T02:39:01.512Z,1.40
2018-08-22T02:41:29.964Z,1.20
2018-08-22T02:43:58.351Z,1.30
2018-08-22T02:46:26.960Z,1.30
2018-08-22T02:48:56.374Z,1.50
2018-08-22T02:51:25.127Z,1.40
2018-08-22T02:53:53.413Z,1.50
2018-08-22T02:56:22.486Z,1.43
2018-08-22T02:58:51.046Z,1.10
2018-08-22T03:01:19.694Z,1.40
2018-08-22T03:03:49.061Z,1.40
2018-08-22T03:06:17.922Z,1.20
2018-08-22T03:08:46.265Z,1.30
2018-08-22T03:11:14.887Z,1.40
2018-08-22T03:13:43.511Z,1.60
2018-08-22T03:16:12.259Z,1.20
2018-08-22T03:18:41.491Z,1.50
2018-08-22T03:21:09.962Z,1.10
2018-08-22T03:23:39.477Z,1.60
2018-08-22T03:26:08.271Z,1.33
2018-08-22T03:28:36.777Z,1.43
2018-08-22T03:31:05.097Z,1.47
2018-08-22T03:33:33.502Z,1.40
2018-08-22T03:36:07.775Z,1.30
2018-08-22T03:38:36.774Z,1.70
2018-08-22T03:41:05.120Z,1.90
2018-08-22T03:43:33.621Z,1.47
2018-08-22T03:46:01.962Z,1.40
2018-08-22T03:48:30.811Z,1.40
2018-08-22T03:51:00.052Z,1.70
2018-08-22T03:53:28.501Z,1.30
2018-08-22T03:56:02.178Z,1.40
2018-08-22T03:58:30.511Z,1.50
2018-08-22T04:00:58.858Z,1.37
2018-08-22T04:03:27.187Z,1.40
2018-08-22T04:05:56.294Z,1.80
2018-08-22T04:08:24.526Z,1.60
2018-08-22T04:10:53.318Z,1.80
2018-08-22T04:13:21.619Z,1.80
2018-08-22T04:15:50.445Z,1.57
2018-08-22T04:18:18.883Z,1.60
2018-08-22T04:20:47.378Z,1.43
2018-08-22T04:23:15.798Z,1.60
2018-08-22T04:25:44.216Z,1.60
2018-08-22T04:28:13.637Z,2.10
2018-08-22T04:30:41.913Z,1.70
2018-08-22T04:33:10.204Z,2.40
2018-08-22T04:35:38.784Z,1.93
2018-08-22T04:38:07.674Z,2.00
2018-08-22T04:40:36.232Z,2.00
2018-08-22T04:43:04.559Z,2.07
2018-08-22T04:45:33.113Z,2.20
2018-08-22T04:48:01.365Z,2.27
2018-08-22T04:50:33.565Z,2.20
2018-08-22T04:53:02.401Z,2.37
2018-08-22T04:55:30.761Z,3.70
2018-08-22T04:57:59.210Z,2.20
2018-08-22T05:00:27.655Z,1.97
2018-08-22T05:02:56.145Z,2.23
2018-08-22T05:05:29.170Z,1.83
2018-08-22T05:07:57.871Z,1.80
2018-08-22T05:10:27.083Z,1.60
2018-08-22T05:12:56.910Z,1.80
2018-08-22T05:15:25.498Z,1.50
2018-08-22T05:17:53.729Z,1.80
2018-08-22T05:20:28.367Z,1.50
2018-08-22T05:22:56.603Z,1.47
2018-08-22T05:25:29.944Z,2.00
2018-08-22T05:27:58.735Z,1.73
2018-08-22T05:30:31.795Z,1.70
2018-08-22T05:33:00.170Z,1.70
2018-08-22T05:35:39.954Z,1.60
2018-08-22T05:38:27.967Z,1.70
2018-08-22T05:40:57.565Z,1.67
2018-08-22T05:43:26.279Z,1.70
2018-08-22T05:46:04.266Z,2.00
2018-08-22T05:48:32.761Z,1.60
2018-08-22T05:51:02.645Z,1.33
2018-08-22T05:53:31.439Z,1.77
2018-08-22T05:56:19.378Z,1.40
2018-08-22T05:58:48.545Z,1.30
2018-08-22T06:01:16.929Z,1.57
2018-08-22T06:03:45.470Z,1.33
2018-08-22T06:06:52.963Z,1.60
2018-08-22T06:09:21.266Z,1.50
2018-08-22T06:11:49.749Z,1.57
2018-08-22T06:14:18.178Z,1.47
2018-08-22T06:17:17.158Z,1.83
2018-08-22T06:19:45.678Z,1.40
2018-08-22T06:22:14.371Z,1.57
2018-08-22T06:24:48.661Z,1.50
2018-08-22T06:27:18.092Z,1.47
2018-08-22T06:29:47.211Z,1.87
2018-08-22T06:32:15.797Z,1.33
2018-08-22T06:34:50.949Z,1.60
2018-08-22T06:37:20.843Z,1.53
2018-08-22T06:39:50.707Z,1.37
2018-08-22T06:45:20.283Z,3.00
2018-08-22T06:47:58.383Z,2.13
2018-08-22T06:50:40.374Z,1.70
2018-08-22T07:01:21.703Z,1.30
2018-08-22T07:07:06.288Z,1.13
2018-08-22T07:09:41.509Z,1.30
2018-08-22T07:23:07.055Z,1.20
2018-08-22T07:25:36.190Z,1.30
2018-08-22T07:28:18.864Z,1.57
2018-08-22T07:36:28.862Z,1.00
2018-08-22T07:39:02.951Z,1.80
2018-08-22T07:41:39.815Z,1.30
2018-08-22T07:44:13.741Z,2.30
2018-08-22T07:46:49.688Z,0.77
2018-08-22T07:49:20.164Z,0.70
2018-08-22T07:51:52.544Z,1.00
2018-08-22T07:54:30.040Z,0.97
2018-08-22T07:57:05.521Z,0.83
2018-08-22T07:59:35.963Z,0.80
2018-08-22T08:07:37.602Z,2.60
2018-08-22T08:15:50.044Z,1.27
2018-08-22T08:27:18.821Z,1.00
2018-08-22T08:51:30.186Z,1.00
2018-08-22T08:54:09.222Z,1.20
2018-08-22T09:05:03.884Z,1.30
2018-08-22T09:07:42.403Z,0.90
2018-08-22T09:10:14.108Z,1.40
2018-08-22T09:15:30.158Z,2.00
2018-08-22T09:18:08.424Z,1.13
2018-08-22T09:20:40.985Z,0.90
2018-08-22T09:23:19.362Z,1.10
2018-08-22T09:25:49.732Z,0.90
2018-08-22T09:28:31.765Z,0.80
2018-08-22T09:31:05.248Z,0.87
2018-08-22T09:33:47.645Z,1.70
2018-08-22T09:36:26.906Z,1.00
2018-08-22T09:44:22.428Z,1.20
2018-08-22T09:47:07.658Z,1.10
2018-08-22T10:10:58.203Z,1.00
2018-08-22T10:13:32.103Z,0.90
2018-08-22T10:16:03.204Z,1.20
2018-08-22T10:18:40.788Z,1.10
2018-08-22T11:51:52.211Z,2.47
2018-08-22T11:54:22.265Z,1.00
2018-08-22T11:56:56.903Z,1.10
2018-08-22T13:08:56.733Z,1.53
2018-08-22T13:11:40.041Z,1.67
2018-08-22T13:22:50.472Z,1.00
2018-08-22T13:36:39.071Z,1.80
2018-08-22T13:49:47.242Z,1.10
2018-08-22T13:54:52.811Z,1.17
2018-08-22T13:57:31.961Z,2.37
2018-08-22T15:14:57.594Z,1.40
2018-08-22T15:18:01.653Z,1.80
2018-08-22T15:20:37.904Z,2.30
2018-08-22T15:23:15.589Z,2.10
2018-08-22T15:28:43.620Z,3.10
2018-08-22T15:31:15.875Z,2.50
2018-08-22T15:39:34.055Z,2.55
2018-08-22T15:42:09.336Z,2.22
2018-08-22T15:56:13.651Z,2.15
2018-08-22T15:58:54.486Z,2.40
2018-08-22T16:11:11.532Z,2.85
2018-08-22T16:22:29.824Z,2.00
2018-08-22T16:27:49.478Z,2.15
2018-08-22T16:30:29.325Z,5.37
2018-08-22T16:44:04.345Z,4.20
2018-08-22T16:49:37.461Z,3.70
2018-08-22T16:52:09.382Z,3.80
2018-08-22T16:57:26.468Z,2.87
2018-08-22T18:18:52.632Z,4.70
2018-08-22T18:21:32.466Z,4.00
2018-08-22T18:27:24.977Z,4.40
2018-08-22T18:44:07.964Z,3.37
2018-08-22T18:47:09.261Z,3.17
2018-08-22T18:53:04.932Z,6.50
2018-08-22T19:17:16.038Z,4.30
2018-08-22T19:22:31.113Z,2.97
2018-08-22T19:25:07.028Z,2.13
2018-08-22T19:27:40.097Z,2.40
2018-08-22T19:30:10.509Z,2.50
2018-08-22T19:35:33.804Z,1.70
2018-08-22T19:38:07.626Z,2.30
2018-08-22T19:40:39.785Z,4.00
2018-08-22T19:43:08.757Z,4.70
2018-08-22T19:45:39.556Z,2.77
2018-08-22T19:48:48.018Z,2.77
2018-08-22T19:51:21.177Z,2.30
2018-08-22T19:54:18.789Z,2.00
2018-08-22T19:56:56.729Z,1.80
2018-08-22T19:59:32.212Z,2.13
2018-08-22T20:02:10.372Z,2.00
2018-08-22T20:07:21.105Z,3.10
2018-08-22T20:10:07.640Z,4.50
2018-08-22T20:21:27.587Z,2.73
2018-08-22T20:50:31.527Z,2.30
2018-08-22T21:04:31.647Z,2.63
2018-08-22T21:09:50.129Z,2.27
2018-08-22T21:12:24.347Z,1.87
2018-08-22T21:17:45.016Z,1.97
2018-08-22T21:20:25.173Z,2.13
2018-08-22T21:22:56.584Z,2.20
2018-08-22T21:25:27.397Z,2.17
2018-08-22T21:28:07.498Z,2.10
2018-08-22T21:30:37.704Z,1.90
2018-08-22T21:33:08.637Z,2.23
2018-08-22T21:35:41.166Z,2.10
2018-08-22T21:38:20.956Z,2.10
2018-08-22T21:40:52.369Z,2.30
2018-08-22T21:43:23.211Z,2.13
2018-08-22T21:45:58.593Z,2.30
2018-08-22T21:48:27.559Z,2.07
2018-08-22T21:51:00.381Z,2.20
2018-08-22T21:53:32.035Z,2.17
2018-08-22T21:56:04.443Z,1.97
2018-08-22T21:58:40.973Z,2.10
2018-08-22T22:01:19.832Z,2.10
2018-08-22T22:03:58.134Z,2.60
2018-08-22T22:06:31.667Z,2.47
2018-08-22T22:09:04.653Z,2.53
2018-08-22T22:11:34.336Z,2.47
2018-08-22T22:14:13.634Z,2.33
2018-08-22T22:16:43.754Z,2.17
2018-08-22T22:19:14.999Z,2.13
2018-08-22T22:21:53.898Z,2.30
2018-08-22T22:24:22.818Z,2.00
2018-08-22T22:27:22.770Z,2.50
2018-08-22T22:29:59.657Z,2.47
2018-08-22T22:32:29.831Z,2.27
2018-08-22T22:35:02.038Z,2.63
2018-08-22T22:37:51.227Z,2.30
2018-08-22T22:40:24.095Z,2.83
2018-08-22T22:42:52.451Z,2.50
2018-08-22T22:45:21.187Z,2.20
2018-08-22T22:47:54.236Z,2.60
2018-08-22T22:50:22.882Z,2.70
2018-08-22T22:52:51.279Z,2.40
2018-08-22T22:55:19.551Z,2.93
2018-08-22T22:57:49.022Z,2.83
2018-08-22T23:00:18.492Z,2.40
2018-08-22T23:02:51.070Z,2.70
2018-08-22T23:05:19.339Z,2.60
2018-08-22T23:07:47.978Z,2.70
2018-08-22T23:10:16.238Z,2.70
2018-08-22T23:12:45.805Z,2.87
2018-08-22T23:15:17.673Z,3.17
2018-08-22T23:17:48.015Z,3.47
2018-08-22T23:20:26.541Z,3.33
2018-08-22T23:22:55.141Z,3.73
2018-08-22T23:25:23.765Z,3.90
2018-08-22T23:28:23.234Z,3.87
2018-08-22T23:30:52.027Z,3.43
2018-08-22T23:33:21.030Z,3.60
2018-08-22T23:35:49.639Z,3.83
2018-08-22T23:38:57.418Z,3.73
2018-08-22T23:41:25.825Z,3.70
2018-08-22T23:43:54.178Z,3.07
2018-08-22T23:46:37.192Z,3.47
2018-08-22T23:49:05.498Z,2.90
2018-08-22T23:51:33.757Z,3.37
2018-08-22T23:54:02.121Z,3.07
2018-08-22T23:56:31.347Z,3.00
2018-08-22T23:59:00.096Z,2.87
